createdAt,value
2023-05-15T00:00:18.411Z,13.09
2023-05-15T00:02:45.030Z,13.14
2023-05-15T00:05:12.931Z,13.18
2023-05-15T00:07:40.606Z,13.17
2023-05-15T00:10:08.094Z,13.14
2023-05-15T00:12:34.877Z,13.14
2023-05-15T00:15:01.345Z,13.11
2023-05-15T00:17:27.728Z,13.10
2023-05-15T00:19:59.001Z,13.08
2023-05-15T00:22:26.157Z,13.05
2023-05-15T00:24:53.363Z,13.08
2023-05-15T00:27:19.847Z,13.08
2023-05-15T00:29:46.223Z,13.02
2023-05-15T00:32:12.650Z,12.97
2023-05-15T00:34:39.010Z,12.93
2023-05-15T00:37:05.459Z,12.92
2023-05-15T00:39:31.862Z,12.93
2023-05-15T00:42:02.139Z,12.93
2023-05-15T00:44:30.982Z,12.91
2023-05-15T00:46:59.217Z,12.92
2023-05-15T00:49:29.372Z,12.91
2023-05-15T00:52:02.023Z,12.87
2023-05-15T00:54:28.413Z,12.89
2023-05-15T00:56:59.658Z,12.85
2023-05-15T00:59:30.109Z,12.81
2023-05-15T01:01:56.489Z,12.77
2023-05-15T01:04:23.040Z,12.78
2023-05-15T01:06:51.316Z,12.74
2023-05-15T01:09:19.412Z,12.76
2023-05-15T01:11:47.400Z,12.73
2023-05-15T01:14:13.742Z,12.70
2023-05-15T01:16:41.448Z,12.67
2023-05-15T01:19:07.876Z,12.67
2023-05-15T01:21:50.870Z,12.65
2023-05-15T01:24:49.027Z,12.65
2023-05-15T01:27:20.353Z,12.62
2023-05-15T01:29:59.231Z,12.59
2023-05-15T01:32:36.187Z,12.55
2023-05-15T01:35:12.025Z,12.51
2023-05-15T01:37:44.046Z,12.49
2023-05-15T01:40:13.319Z,12.44
2023-05-15T01:42:44.255Z,12.42
2023-05-15T01:45:11.911Z,12.38
2023-05-15T01:47:41.957Z,12.37
2023-05-15T01:50:11.277Z,12.35
2023-05-15T01:52:41.787Z,12.31
2023-05-15T01:55:09.596Z,12.28
2023-05-15T01:57:37.077Z,12.25
2023-05-15T02:00:04.105Z,12.22
2023-05-15T02:02:31.534Z,12.25
2023-05-15T02:04:58.816Z,12.30
2023-05-15T02:07:26.290Z,12.30
2023-05-15T02:09:53.727Z,12.32
2023-05-15T02:12:21.359Z,12.35
2023-05-15T02:14:49.417Z,12.34
2023-05-15T02:17:16.387Z,12.35
2023-05-15T02:19:42.733Z,12.37
2023-05-15T02:22:09.205Z,12.38
2023-05-15T02:24:35.565Z,12.40
2023-05-15T02:27:16.219Z,12.43
2023-05-15T02:29:57.948Z,12.46
2023-05-15T02:32:30.914Z,12.45
2023-05-15T02:35:28.145Z,12.43
2023-05-15T02:37:56.752Z,12.45
2023-05-15T02:40:24.807Z,12.48
2023-05-15T02:42:53.200Z,12.45
2023-05-15T02:45:20.078Z,12.43
2023-05-15T02:47:46.611Z,12.47
2023-05-15T02:50:13.202Z,12.48
2023-05-15T02:52:39.783Z,12.49
2023-05-15T02:55:06.694Z,12.49
2023-05-15T02:57:33.774Z,12.49
2023-05-15T03:00:00.672Z,12.48
2023-05-15T03:02:27.256Z,12.48
2023-05-15T03:04:54.427Z,12.48
2023-05-15T03:07:20.837Z,12.39
2023-05-15T03:09:47.232Z,12.33
2023-05-15T03:12:13.602Z,12.32
2023-05-15T03:14:39.964Z,12.32
2023-05-15T03:17:09.181Z,12.31
2023-05-15T03:19:35.562Z,12.27
2023-05-15T03:22:01.935Z,12.30
2023-05-15T03:24:28.393Z,12.29
2023-05-15T03:26:54.735Z,12.25
2023-05-15T03:29:21.094Z,12.23
2023-05-15T03:31:47.602Z,12.21
2023-05-15T03:34:13.964Z,12.20
2023-05-15T03:36:40.329Z,12.18
2023-05-15T03:39:06.700Z,12.12
2023-05-15T03:41:33.097Z,12.13
2023-05-15T03:43:59.453Z,12.18
2023-05-15T03:46:25.904Z,12.19
2023-05-15T03:48:54.424Z,12.21
2023-05-15T03:51:20.779Z,12.20
2023-05-15T03:53:47.167Z,12.18
2023-05-15T03:56:13.585Z,12.19
2023-05-15T03:58:39.921Z,12.16
2023-05-15T04:01:06.484Z,12.14
2023-05-15T04:03:32.874Z,12.06
2023-05-15T04:05:59.269Z,12.10
2023-05-15T04:08:25.692Z,12.14
2023-05-15T04:10:52.291Z,12.16
2023-05-15T04:13:18.657Z,12.13
2023-05-15T04:15:45.015Z,12.09
2023-05-15T04:18:11.360Z,12.06
2023-05-15T04:20:37.726Z,12.01
2023-05-15T04:23:05.601Z,12.00
2023-05-15T04:25:32.373Z,12.02
2023-05-15T04:27:58.731Z,12.00
2023-05-15T04:30:25.487Z,11.99
2023-05-15T04:32:52.012Z,11.98
2023-05-15T04:35:19.063Z,11.97
2023-05-15T04:37:48.693Z,12.01
2023-05-15T04:40:16.322Z,11.98
2023-05-15T04:42:42.999Z,11.90
2023-05-15T04:45:10.027Z,11.86
2023-05-15T04:47:37.142Z,11.89
2023-05-15T04:50:03.860Z,11.91
2023-05-15T04:52:30.277Z,11.87
2023-05-15T04:54:56.618Z,11.86
2023-05-15T04:57:23.262Z,11.89
2023-05-15T04:59:50.002Z,11.92
2023-05-15T05:02:16.439Z,11.95
2023-05-15T05:04:44.041Z,11.96
2023-05-15T05:07:10.404Z,11.96
2023-05-15T05:09:38.875Z,11.94
2023-05-15T05:12:06.149Z,11.96
2023-05-15T05:14:32.592Z,11.98
2023-05-15T05:16:58.944Z,12.02
2023-05-15T05:19:26.077Z,12.04
2023-05-15T05:21:52.431Z,12.04
2023-05-15T05:24:18.805Z,12.03
2023-05-15T05:26:45.244Z,12.04
2023-05-15T05:29:11.673Z,12.07
2023-05-15T05:31:38.151Z,12.10
2023-05-15T05:34:04.573Z,12.14
2023-05-15T05:36:30.943Z,12.09
2023-05-15T05:38:57.277Z,12.15
2023-05-15T05:41:23.636Z,12.23
2023-05-15T05:43:49.970Z,12.27
2023-05-15T05:46:16.509Z,12.35
2023-05-15T05:48:42.867Z,12.35
2023-05-15T05:51:09.230Z,12.37
2023-05-15T05:53:37.497Z,12.32
2023-05-15T05:56:04.752Z,12.33
2023-05-15T05:58:31.097Z,12.35
2023-05-15T06:00:57.708Z,12.34
2023-05-15T06:03:24.170Z,12.39
2023-05-15T06:05:50.908Z,12.41
2023-05-15T06:08:17.257Z,12.43
2023-05-15T06:10:43.637Z,12.42
2023-05-15T06:13:09.999Z,12.42
2023-05-15T06:15:36.391Z,12.37
2023-05-15T06:18:03.019Z,12.40
2023-05-15T06:20:29.550Z,12.31
2023-05-15T06:22:56.068Z,12.19
2023-05-15T06:25:22.624Z,12.31
2023-05-15T06:27:49.010Z,12.37
2023-05-15T06:30:15.558Z,12.45
2023-05-15T06:32:42.308Z,12.51
2023-05-15T06:35:09.935Z,12.56
2023-05-15T06:37:37.062Z,12.60
2023-05-15T06:40:05.022Z,12.68
2023-05-15T06:42:31.882Z,12.72
2023-05-15T06:44:58.305Z,12.73
2023-05-15T06:47:24.893Z,12.69
2023-05-15T06:49:51.313Z,12.66
2023-05-15T06:52:17.802Z,12.65
2023-05-15T06:54:44.211Z,12.62
2023-05-15T06:57:10.574Z,12.69
2023-05-15T06:59:36.965Z,12.78
2023-05-15T07:02:03.696Z,12.87
2023-05-15T07:04:32.349Z,12.96
2023-05-15T07:07:07.236Z,12.94
2023-05-15T07:09:48.283Z,12.84
2023-05-15T07:12:16.262Z,12.92
2023-05-15T07:14:42.637Z,13.02
2023-05-15T07:17:11.126Z,13.04
2023-05-15T07:19:39.654Z,13.06
2023-05-15T07:22:06.103Z,13.06
2023-05-15T07:24:44.385Z,13.06
2023-05-15T07:27:12.964Z,13.11
2023-05-15T07:29:39.401Z,13.16
2023-05-15T07:32:06.033Z,13.17
2023-05-15T07:34:32.465Z,13.14
2023-05-15T07:36:58.856Z,13.19
2023-05-15T07:39:25.296Z,13.27
2023-05-15T07:41:51.745Z,13.36
2023-05-15T07:44:18.105Z,13.36
2023-05-15T07:46:45.787Z,13.43
2023-05-15T07:49:12.489Z,13.49
2023-05-15T07:51:38.868Z,13.44
2023-05-15T07:54:05.346Z,13.44
2023-05-15T07:56:33.173Z,13.55
2023-05-15T07:58:59.552Z,13.58
2023-05-15T08:01:25.983Z,13.52
2023-05-15T08:03:52.458Z,13.60
2023-05-15T08:06:18.971Z,13.63
2023-05-15T08:08:45.438Z,13.70
2023-05-15T08:11:11.786Z,13.71
2023-05-15T08:13:38.187Z,13.77
2023-05-15T08:16:05.463Z,13.86
2023-05-15T08:18:31.864Z,13.94
2023-05-15T08:20:58.282Z,14.05
2023-05-15T08:23:24.643Z,14.11
2023-05-15T08:25:51.138Z,14.21
2023-05-15T08:28:17.506Z,14.29
2023-05-15T08:30:43.877Z,14.41
2023-05-15T08:33:10.271Z,14.50
2023-05-15T08:35:36.691Z,14.49
2023-05-15T08:38:03.236Z,14.50
2023-05-15T08:40:38.970Z,14.55
2023-05-15T08:43:14.908Z,14.58
2023-05-15T08:45:41.790Z,14.62
2023-05-15T08:48:14.462Z,14.68
2023-05-15T08:50:41.565Z,14.72
2023-05-15T08:53:08.204Z,14.74
2023-05-15T08:55:34.949Z,14.64
2023-05-15T08:58:01.472Z,14.55
2023-05-15T09:00:28.831Z,14.59
2023-05-15T09:02:55.265Z,14.60
2023-05-15T09:05:21.785Z,14.65
2023-05-15T09:07:49.334Z,14.66
2023-05-15T09:10:16.331Z,14.67
2023-05-15T09:12:44.532Z,14.72
2023-05-15T09:15:17.746Z,14.78
2023-05-15T09:17:45.440Z,14.83
2023-05-15T09:20:28.125Z,14.86
2023-05-15T09:22:55.826Z,14.84
2023-05-15T09:25:43.301Z,14.89
2023-05-15T09:28:23.934Z,14.88
2023-05-15T09:30:50.338Z,14.91
2023-05-15T09:33:17.236Z,14.98
2023-05-15T09:35:45.233Z,15.05
2023-05-15T09:38:12.756Z,15.13
2023-05-15T09:40:42.809Z,15.17
2023-05-15T09:43:12.317Z,15.23
2023-05-15T09:45:38.771Z,15.26
2023-05-15T09:48:06.588Z,15.27
2023-05-15T09:50:38.782Z,15.26
2023-05-15T09:53:05.805Z,15.37
2023-05-15T09:55:33.821Z,15.47
2023-05-15T09:58:15.190Z,15.54
2023-05-15T10:00:47.621Z,15.55
2023-05-15T10:03:17.775Z,15.55
2023-05-15T10:05:44.565Z,15.53
2023-05-15T10:08:12.266Z,15.50
2023-05-15T10:10:38.769Z,15.46
2023-05-15T10:13:08.295Z,15.37
2023-05-15T10:15:35.370Z,15.34
2023-05-15T10:18:04.888Z,15.33
2023-05-15T10:20:33.192Z,15.33
2023-05-15T10:23:00.597Z,15.33
2023-05-15T10:25:36.400Z,15.30
2023-05-15T10:28:03.681Z,15.30
2023-05-15T10:30:31.465Z,15.23
2023-05-15T10:32:58.394Z,15.15
2023-05-15T10:35:26.009Z,15.09
2023-05-15T10:37:53.478Z,15.02
2023-05-15T10:40:20.207Z,14.99
2023-05-15T10:42:47.692Z,14.98
2023-05-15T10:45:14.545Z,14.94
2023-05-15T10:47:43.460Z,14.90
2023-05-15T10:50:11.845Z,14.87
2023-05-15T10:52:39.401Z,14.84
2023-05-15T10:55:16.213Z,14.80
2023-05-15T10:57:43.303Z,14.76
2023-05-15T11:00:31.524Z,14.75
2023-05-15T11:02:58.822Z,14.75
2023-05-15T11:05:25.859Z,14.75
2023-05-15T11:08:19.369Z,14.73
2023-05-15T11:10:45.752Z,14.72
2023-05-15T11:13:12.212Z,14.72
2023-05-15T11:15:46.496Z,14.68
2023-05-15T11:18:13.193Z,14.71
2023-05-15T11:20:42.046Z,14.71
2023-05-15T11:23:09.160Z,14.69
2023-05-15T11:25:36.542Z,14.68
2023-05-15T11:28:04.638Z,14.69
2023-05-15T11:30:40.389Z,14.69
2023-05-15T11:33:10.391Z,14.68
2023-05-15T11:35:43.094Z,14.66
2023-05-15T11:38:09.563Z,14.62
2023-05-15T11:40:52.558Z,14.61
2023-05-15T11:43:22.148Z,14.62
2023-05-15T11:45:53.049Z,14.60
2023-05-15T11:48:19.799Z,14.61
2023-05-15T11:50:46.420Z,14.63
2023-05-15T11:53:13.530Z,14.59
2023-05-15T11:55:42.329Z,14.59
2023-05-15T11:58:14.030Z,14.61
2023-05-15T12:00:41.569Z,14.58
2023-05-15T12:03:16.138Z,14.58
2023-05-15T12:05:54.130Z,14.60
2023-05-15T12:08:25.497Z,14.63
2023-05-15T12:10:51.943Z,14.63
2023-05-15T12:13:18.647Z,14.62
2023-05-15T12:15:46.630Z,14.63
2023-05-15T12:18:13.698Z,14.70
2023-05-15T12:20:46.519Z,14.73
2023-05-15T12:23:17.306Z,14.78
2023-05-15T12:25:46.385Z,14.82
2023-05-15T12:28:13.522Z,14.86
2023-05-15T12:30:42.134Z,14.92
2023-05-15T12:33:09.986Z,14.99
2023-05-15T12:35:37.475Z,15.09
2023-05-15T12:38:05.100Z,15.17
2023-05-15T12:40:36.012Z,15.23
2023-05-15T12:43:09.471Z,15.29
2023-05-15T12:45:38.615Z,15.35
2023-05-15T12:48:05.881Z,15.36
2023-05-15T12:50:34.084Z,15.38
2023-05-15T12:53:03.212Z,15.43
2023-05-15T12:55:32.397Z,15.48
2023-05-15T12:58:04.485Z,15.49
2023-05-15T13:00:32.023Z,15.52
2023-05-15T13:02:58.820Z,15.58
2023-05-15T13:05:31.335Z,15.62
2023-05-15T13:08:02.842Z,15.62
2023-05-15T13:10:32.609Z,15.63
2023-05-15T13:12:59.121Z,15.67
2023-05-15T13:15:29.873Z,15.73
2023-05-15T13:18:04.101Z,15.70
2023-05-15T13:20:39.609Z,15.71
2023-05-15T13:23:07.215Z,15.73
2023-05-15T13:25:33.970Z,15.82
2023-05-15T13:28:05.878Z,15.84
2023-05-15T13:30:33.363Z,15.84
2023-05-15T13:33:00.089Z,15.82
2023-05-15T13:35:27.034Z,15.79
2023-05-15T13:37:53.502Z,15.73
2023-05-15T13:40:19.909Z,15.64
2023-05-15T13:42:46.283Z,15.61
2023-05-15T13:45:14.231Z,15.46
2023-05-15T13:47:41.201Z,15.44
2023-05-15T13:50:13.109Z,15.46
2023-05-15T13:52:40.916Z,15.48
2023-05-15T13:55:09.785Z,15.42
2023-05-15T13:57:37.929Z,15.39
2023-05-15T14:00:10.689Z,15.37
2023-05-15T14:02:37.126Z,15.32
2023-05-15T14:05:04.750Z,15.30
2023-05-15T14:07:31.867Z,15.28
2023-05-15T14:09:58.437Z,15.23
2023-05-15T14:12:25.116Z,15.23
2023-05-15T14:14:51.669Z,15.18
2023-05-15T14:17:18.465Z,15.16
2023-05-15T14:19:44.973Z,15.14
2023-05-15T14:22:11.714Z,15.12
2023-05-15T14:24:38.143Z,15.14
2023-05-15T14:27:04.892Z,15.16
2023-05-15T14:29:31.654Z,15.16
2023-05-15T14:31:58.169Z,15.13
2023-05-15T14:34:24.646Z,15.12
2023-05-15T14:36:51.157Z,15.09
2023-05-15T14:39:18.673Z,15.08
2023-05-15T14:41:45.236Z,15.03
2023-05-15T14:44:11.630Z,14.99
2023-05-15T14:46:41.790Z,14.96
2023-05-15T14:49:08.254Z,14.91
2023-05-15T14:51:34.719Z,14.88
2023-05-15T14:54:01.085Z,14.84
2023-05-15T14:56:27.578Z,14.79
2023-05-15T14:58:53.946Z,14.74
2023-05-15T15:01:20.758Z,14.67
2023-05-15T15:03:47.984Z,14.67
2023-05-15T15:06:14.603Z,14.61
2023-05-15T15:08:41.230Z,14.59
2023-05-15T15:11:07.838Z,14.54
2023-05-15T15:13:34.285Z,14.53
2023-05-15T15:16:00.760Z,14.56
2023-05-15T15:18:27.207Z,14.53
2023-05-15T15:20:53.574Z,14.55
2023-05-15T15:23:19.950Z,14.51
2023-05-15T15:25:46.401Z,14.50
2023-05-15T15:28:12.983Z,14.45
2023-05-15T15:30:39.345Z,14.42
2023-05-15T15:33:05.780Z,14.40
2023-05-15T15:35:32.281Z,14.39
2023-05-15T15:37:58.830Z,14.35
2023-05-15T15:40:25.632Z,14.36
2023-05-15T15:42:53.744Z,14.29
2023-05-15T15:45:20.229Z,14.28
2023-05-15T15:47:46.672Z,14.29
2023-05-15T15:50:13.101Z,14.28
2023-05-15T15:52:39.511Z,14.24
2023-05-15T15:55:06.530Z,14.22
2023-05-15T15:57:33.331Z,14.22
2023-05-15T15:59:59.806Z,14.22
2023-05-15T16:02:26.346Z,14.20
2023-05-15T16:04:52.749Z,14.17
2023-05-15T16:07:19.299Z,14.11
2023-05-15T16:09:46.606Z,14.06
2023-05-15T16:12:15.794Z,14.02
2023-05-15T16:14:42.202Z,14.02
2023-05-15T16:17:08.536Z,14.01
2023-05-15T16:19:37.890Z,13.97
2023-05-15T16:22:04.467Z,13.95
2023-05-15T16:24:30.864Z,13.99
2023-05-15T16:26:57.249Z,13.98
2023-05-15T16:29:23.863Z,13.91
2023-05-15T16:31:50.384Z,13.88
2023-05-15T16:34:16.852Z,13.85
2023-05-15T16:36:43.489Z,13.87
2023-05-15T16:39:09.942Z,13.90
2023-05-15T16:41:36.376Z,13.88
2023-05-15T16:44:03.411Z,13.91
2023-05-15T16:46:29.816Z,13.88
2023-05-15T16:48:56.288Z,13.91
2023-05-15T16:51:22.850Z,13.88
2023-05-15T16:53:49.246Z,13.87
2023-05-15T16:56:15.701Z,13.88
2023-05-15T16:58:42.504Z,13.82
2023-05-15T17:01:08.890Z,13.78
2023-05-15T17:03:36.121Z,13.75
2023-05-15T17:06:02.740Z,13.79
2023-05-15T17:08:29.174Z,13.85
2023-05-15T17:10:55.870Z,13.88
2023-05-15T17:13:22.316Z,13.88
2023-05-15T17:15:49.813Z,13.84
2023-05-15T17:18:16.639Z,13.84
2023-05-15T17:20:43.092Z,13.83
2023-05-15T17:23:09.467Z,13.82
2023-05-15T17:25:40.894Z,13.83
2023-05-15T17:28:07.282Z,13.81
2023-05-15T17:30:33.761Z,13.80
2023-05-15T17:33:00.417Z,13.82
2023-05-15T17:35:27.587Z,13.82
2023-05-15T17:37:54.687Z,13.77
2023-05-15T17:40:21.079Z,13.75
2023-05-15T17:42:54.761Z,13.74
2023-05-15T17:45:21.139Z,13.69
2023-05-15T17:47:49.085Z,13.63
2023-05-15T17:50:15.692Z,13.57
2023-05-15T17:52:42.101Z,13.56
2023-05-15T17:55:08.907Z,13.53
2023-05-15T17:57:35.277Z,13.47
